Аэропорт: Ширак. Гюмри

ICAO: UDSG

METAR:
2018/05/20 23:00
UDSG 202300Z 04003KT 9999 BKN036CB OVC046 11/10 Q1019 R02/29//55 NOSIG
METAR:
2018/05/20 18:00
TAF UDSG 201703Z 2018/2118 24004KT 9999 SCT040CB OVC100 
      TEMPO 2018/2023 03014KT 3000 -TSRA BKN030CB 
      TEMPO 2103/2118 VRB16KT -TSRA BKN020CB